Historyczne dane pomiarowe

Dodano dane terminowe – wersja testowa.

Dane z okresu 1951-2019

Wersja bazy: 1.34 [2019-03-16, lista zmian], aktualizacja planowana na 2019-04-15

Dane meteo z obszaru Polski uzyskane na podstawie danych udostępnionych przez Instytut Meteorologii i Gospodarki Wodnej – Państwowy Instytut Badawczy.

 

Wybierz Datę:    

       

TemperaturaWilgotnośćWiatrCiśnienieOpadyŚniegCzas trwania zjawisk
 Stacja t tx tn tng RH VA  wxwx mslp ppp RRR   cm mm wxwxwxwxwxwxwx
1987-08-14 14.8 20.0 10.5 7.8 88.5- 8.0 1.7---- 3.1------------
1987-08-13 14.0 23.0 8.0 4.9 73.8- 2.0 1.3---- 1.5------------
1987-08-12 12.4 18.5 6.0 3.9 80.8- 6.7 0.7---- 0.0------------
1987-08-11 12.9 17.5 11.5 9.8 83.3- 7.7 3.3---- 2.1------------
1987-08-10 13.8 16.5 12.8 11.0 93.0- 8.0 1.0---- 2.0------------
1987-08-09 15.4 23.0 9.3 6.6 84.3- 7.0 0.7---- 15.1------------
1987-08-08 14.0 21.0 7.5 3.9 74.8- 5.0 2.0---- 0.0------------
1987-08-07 12.5 19.0 6.2 3.5 73.5- 2.7 1.3---- 0.0------------
1987-08-06 11.1 15.0 8.5 7.1 85.8- 7.3 3.3---- 0.7------------
1987-08-05 12.0 16.0 7.0 6.2 81.8- 8.0 3.0---- 0.5------------
1987-08-04 13.7 18.0 11.2 9.3 81.8- 6.7 2.0---- 1.6------------
1987-08-03 13.8 19.0 9.0 7.4 77.0- 6.0 1.7---- 2.2------------
1987-08-02 13.4 17.0 10.5 8.3 82.0- 6.0 3.7---- 1.3------------
1987-08-01 15.3 18.5 14.5 13.3 88.8- 6.7 2.7---- 8.5------------
1987-07-31 15.7 18.3 13.0 12.1 80.8- 8.0 2.7---- 0.4------------
1987-07-30 17.2 24.5 12.8 10.3 78.8- 7.3 1.3---- 3.5------------
1987-07-29 14.3 18.0 10.0 7.4 79.3- 5.3 0.7---- 0.0------------
1987-07-28 13.4 15.2 12.5 11.5 85.8- 8.0 3.7---- 0.6------------
1987-07-27 12.6 18.0 9.7 7.8 78.8- 8.0 4.0---- 1.5------------
1987-07-26 12.9 17.5 8.8 7.4 74.3- 4.7 2.7---- 0.2------------
1987-07-25 15.3 20.9 13.0 11.3 82.3- 6.7 3.0---- 0.8------------
1987-07-24 19.0 23.5 12.5 9.8 74.3- 4.7 1.7---- 0.1------------
1987-07-23 18.2 25.0 13.0 10.8 89.3- 8.0 1.0---- 36.5------------
1987-07-22 19.2 24.0 15.0 13.8 83.5- 5.3 1.7---- 0.1------------
1987-07-21 17.4 22.3 13.0 10.8 87.8- 8.0 0.7---- 22.2------------
1987-07-20 18.8 23.4 15.6 14.0 81.8- 5.3 1.7---- 0.0------------
1987-07-19 19.0 22.0 16.1 15.8 86.0- 7.7 2.0---- 4.5------------
1987-07-18 19.5 23.0 16.6 14.8 88.0- 7.7 1.0---- 25.3------------
1987-07-17 21.2 28.4 16.6 15.3 72.0- 6.0 4.0---- 1.6------------
1987-07-16 19.3 24.5 14.0 12.6 58.3- 8.0 3.3---- 0.0------------
1987-07-15 18.2 23.5 11.5 7.8 60.0- 2.7 3.0---- 0.3------------
1987-07-14 16.0 22.5 5.2 3.4 70.0- 1.7 1.7---- 0.0------------
1987-07-13 14.9 19.5 9.5 7.6 77.8- 6.7 2.7---- 0.0------------
1987-07-12 17.8 22.5 14.5 11.8 86.3- 6.3 0.7---- 2.3------------
1987-07-11 16.9 24.0 9.0 6.9 74.0- 8.0 2.0---- 11.0------------
1987-07-10 14.5 18.0 9.0 6.6 66.3- 3.7 3.3---- 0.0------------
1987-07-09 16.1 21.0 15.0 14.8 77.8- 6.7 2.3---- 0.0------------
1987-07-08 20.6 27.4 15.6 11.3 75.3- 5.7 2.7---- 5.0------------
1987-07-07 21.0 27.9 10.5 7.8 58.8- 1.3 2.3---- 0.0------------
1987-07-06 18.9 25.4 8.0 5.9 63.5- 0.7 0.7---- 0.0------------
1987-07-05 17.1 22.5 7.5 4.9 65.0- 1.3 0.3---- 0.0------------
1987-07-04 17.7 22.5 11.0 8.8 70.0- 3.0 2.3---- 0.0------------
1987-07-03 18.8 23.0 12.3 9.8 67.8- 4.7 0.0---- 0.0------------
1987-07-02 19.1 23.5 11.5 9.8 72.8- 5.7 1.3---- 0.0------------
1987-07-01 23.2 30.4 20.1 15.8 83.3- 5.3 2.0---- 10.0------------
1987-06-30 24.8 30.8 16.6 14.3 71.8- 0.7 1.3---- 0.0------------
1987-06-29 20.8 27.4 12.5 10.8 78.0- 5.7 1.7---- 0.0------------
1987-06-28 18.5 21.0 14.5 11.3 78.3- 8.0 2.7---- 0.6------------
1987-06-27 17.8 21.5 14.0 12.8 69.3- 2.7 1.3---- 0.0------------
1987-06-26 17.0 21.8 10.5 8.8 71.0- 3.0 1.0---- 0.0------------
1987-06-25 13.6 17.5 10.5 9.8 87.8- 8.0 1.3---- 0.9------------
1987-06-24 14.6 20.0 10.5 8.8 76.3- 7.3 2.0---- 8.5------------
1987-06-23 14.0 19.0 8.0 5.9 90.0- 5.7 0.7---- 5.3------------
1987-06-22 15.0 18.5 12.2 11.8 80.0- 7.0 2.0---- 0.1------------
1987-06-21 16.2 21.5 10.5 7.8 81.8- 5.3 1.3---- 0.5------------
1987-06-20 16.2 21.5 7.0 3.9 67.5- 2.7 3.0---- 0.1------------
1987-06-19 12.8 17.5 9.0 7.8 74.0- 6.7 2.3---- 0.1------------
1987-06-18 11.0 14.5 7.7 4.4 78.3- 8.0 4.0---- 3.2------------
1987-06-17 12.0 14.1 10.0 8.8 64.5- 6.7 4.3---- 0.0------------
1987-06-16 11.1 20.1 9.0 8.8 85.8- 8.0 5.0---- 0.2------------
1329.9 ms

 

Źródłem pochodzenia danych jest Instytut Meteorologii i Gospodarki Wodnej – Państwowy Instytut Badawczy. Dane Instytutu Meteorologii i Gospodarki Wodnej – Państwowego Instytutu Badawczego zostały przetworzone.

Dane źródłowe można odnaleźć na stronie https://dane.imgw.pl